createdAt,value
2022-12-18T00:00:43.860Z,99030.06
2022-12-18T00:03:47.047Z,99028.22
2022-12-18T00:06:50.202Z,99028.56
2022-12-18T00:09:52.970Z,99044.91
2022-12-18T00:12:55.734Z,99056.59
2022-12-18T00:16:03.111Z,99054.75
2022-12-18T00:19:06.643Z,99072.13
2022-12-18T00:22:09.421Z,99072.78
2022-12-18T00:25:12.232Z,99086.41
2022-12-18T00:28:15.000Z,99092.75
2022-12-18T00:31:21.630Z,99091.06
2022-12-18T00:34:24.496Z,99099.38
2022-12-18T00:37:27.251Z,99111.22
2022-12-18T00:40:30.090Z,99111.69
2022-12-18T00:43:34.581Z,99121.53
2022-12-18T00:46:38.759Z,99132.56
2022-12-18T00:49:41.490Z,99135.69
2022-12-18T00:52:44.707Z,99140.53
2022-12-18T00:55:47.826Z,99138.38
2022-12-18T00:58:50.917Z,99147.16
2022-12-18T01:01:55.412Z,99156.19
2022-12-18T01:04:58.301Z,99158.84
2022-12-18T01:08:01.556Z,99164.97
2022-12-18T01:11:12.770Z,99173.16
2022-12-18T01:14:15.566Z,99179.78
2022-12-18T01:17:19.761Z,99185.78
2022-12-18T01:20:22.574Z,99192.28
2022-12-18T01:23:27.506Z,99195.78
2022-12-18T01:26:30.981Z,99189.78
2022-12-18T01:29:33.774Z,99193.28
2022-12-18T01:32:37.964Z,99187.25
2022-12-18T01:35:42.702Z,99193.75
2022-12-18T01:38:45.535Z,99197.25
2022-12-18T01:42:05.231Z,99208.59
2022-12-18T01:45:24.352Z,99209.75
2022-12-18T01:48:28.554Z,99207.09
2022-12-18T01:51:32.040Z,99204.41
2022-12-18T01:54:34.807Z,99210.75
2022-12-18T01:57:37.887Z,99220.75
2022-12-18T02:00:41.102Z,99219.69
2022-12-18T02:03:46.454Z,99223.88
2022-12-18T02:06:53.242Z,99218.53
2022-12-18T02:09:59.332Z,99214.66
2022-12-18T02:13:05.062Z,99211.19
2022-12-18T02:16:13.180Z,99220.22
2022-12-18T02:19:23.862Z,99226.31
2022-12-18T02:22:31.944Z,99225.31
2022-12-18T02:25:43.029Z,99234.31
2022-12-18T02:28:49.037Z,99243.16
2022-12-18T02:31:54.367Z,99246.00
2022-12-18T02:34:58.630Z,99253.59
2022-12-18T02:38:02.167Z,99254.00
2022-12-18T02:41:05.631Z,99255.97
2022-12-18T02:44:11.034Z,99263.59
2022-12-18T02:47:14.770Z,99271.88
2022-12-18T02:50:21.183Z,99270.22
2022-12-18T02:53:27.597Z,99273.88
2022-12-18T02:56:33.664Z,99282.88
2022-12-18T02:59:41.742Z,99289.19
2022-12-18T03:02:48.587Z,99287.06
2022-12-18T03:05:53.057Z,99291.19
2022-12-18T03:08:59.858Z,99296.75
2022-12-18T03:12:23.146Z,99301.31
2022-12-18T03:15:28.921Z,99307.28
2022-12-18T03:18:35.720Z,99306.66
2022-12-18T03:21:41.044Z,99317.38
2022-12-18T03:24:44.010Z,99318.06
2022-12-18T03:27:48.650Z,99318.84
2022-12-18T03:30:55.182Z,99326.34
2022-12-18T03:34:00.007Z,99338.72
2022-12-18T03:37:05.980Z,99329.56
2022-12-18T03:40:09.241Z,99337.25
2022-12-18T03:43:19.010Z,99342.44
2022-12-18T03:46:28.235Z,99332.97
2022-12-18T03:49:34.642Z,99337.63
2022-12-18T03:52:39.273Z,99346.56
2022-12-18T03:55:42.467Z,99347.72
2022-12-18T03:58:46.282Z,99351.41
2022-12-18T04:01:53.519Z,99361.47
2022-12-18T04:04:59.771Z,99360.47
2022-12-18T04:08:03.235Z,99360.47
2022-12-18T04:11:06.145Z,99362.13
2022-12-18T04:14:11.853Z,99370.16
2022-12-18T04:17:18.687Z,99369.81
2022-12-18T04:20:21.657Z,99369.53
2022-12-18T04:23:24.462Z,99367.53
2022-12-18T04:26:27.222Z,99382.56
2022-12-18T04:29:30.208Z,99383.09
2022-12-18T04:32:35.299Z,99399.97
2022-12-18T04:35:38.087Z,99404.31
2022-12-18T04:38:40.860Z,99410.34
2022-12-18T04:41:43.602Z,99404.00
2022-12-18T04:44:46.400Z,99413.72
2022-12-18T04:47:50.568Z,99419.56
2022-12-18T04:50:53.302Z,99428.75
2022-12-18T04:53:56.109Z,99429.25
2022-12-18T04:56:58.872Z,99430.09
2022-12-18T05:00:01.633Z,99434.31
2022-12-18T05:03:05.896Z,99440.31
2022-12-18T05:06:09.196Z,99443.84
2022-12-18T05:09:11.962Z,99449.19
2022-12-18T05:12:15.748Z,99455.38
2022-12-18T05:15:18.586Z,99457.88
2022-12-18T05:18:22.704Z,99458.72
2022-12-18T05:21:25.500Z,99468.56
2022-12-18T05:24:28.388Z,99467.13
2022-12-18T05:27:31.113Z,99473.91
2022-12-18T05:30:33.933Z,99480.81
2022-12-18T05:33:38.472Z,99493.16
2022-12-18T05:36:41.579Z,99504.03
2022-12-18T05:39:44.784Z,99495.16
2022-12-18T05:42:47.500Z,99516.06
2022-12-18T05:45:50.738Z,99517.72
2022-12-18T05:48:54.856Z,99515.78
2022-12-18T05:51:57.661Z,99526.13
2022-12-18T05:55:01.064Z,99539.66
2022-12-18T05:58:04.406Z,99542.19
2022-12-18T06:01:11.572Z,99542.19
2022-12-18T06:04:15.742Z,99555.53
2022-12-18T06:07:18.653Z,99567.47
2022-12-18T06:10:21.481Z,99563.94
2022-12-18T06:13:24.268Z,99562.41
2022-12-18T06:16:27.275Z,99567.63
2022-12-18T06:19:31.542Z,99568.47
2022-12-18T06:22:34.564Z,99578.16
2022-12-18T06:25:39.405Z,99580.66
2022-12-18T06:28:42.192Z,99587.84
2022-12-18T06:31:45.037Z,99588.53
2022-12-18T06:34:49.183Z,99593.03
2022-12-18T06:37:52.003Z,99611.91
2022-12-18T06:40:55.201Z,99599.38
2022-12-18T06:44:00.023Z,99607.13
2022-12-18T06:47:03.224Z,99600.91
2022-12-18T06:50:07.958Z,99597.38
2022-12-18T06:53:10.761Z,99618.09
2022-12-18T06:56:13.612Z,99621.09
2022-12-18T06:59:16.656Z,99626.88
2022-12-18T07:02:19.786Z,99627.50
2022-12-18T07:05:24.033Z,99633.59
2022-12-18T07:08:26.820Z,99632.09
2022-12-18T07:11:29.665Z,99635.72
2022-12-18T07:14:32.437Z,99637.88
2022-12-18T07:17:35.225Z,99643.38
2022-12-18T07:20:39.390Z,99655.19
2022-12-18T07:23:42.549Z,99669.69
2022-12-18T07:26:47.706Z,99675.47
2022-12-18T07:29:50.718Z,99683.13
2022-12-18T07:32:53.478Z,99684.97
2022-12-18T07:35:57.614Z,99699.25
2022-12-18T07:39:00.361Z,99700.25
2022-12-18T07:42:20.948Z,99699.09
2022-12-18T07:45:24.241Z,99708.75
2022-12-18T07:48:27.397Z,99700.75
2022-12-18T07:51:31.559Z,99698.44
2022-12-18T07:54:34.379Z,99698.84
2022-12-18T07:57:55.456Z,99703.03
2022-12-18T08:01:04.618Z,99709.22
2022-12-18T08:04:07.430Z,99724.13
2022-12-18T08:07:11.553Z,99724.97
2022-12-18T08:10:14.598Z,99731.00
2022-12-18T08:13:17.309Z,99736.06
2022-12-18T08:16:20.861Z,99724.53
2022-12-18T08:19:23.696Z,99728.16
2022-12-18T08:22:27.954Z,99728.16
2022-12-18T08:25:30.704Z,99720.16
2022-12-18T08:28:33.465Z,99733.50
2022-12-18T08:31:36.343Z,99729.56
2022-12-18T08:34:39.206Z,99734.91
2022-12-18T08:37:43.316Z,99739.94
2022-12-18T08:40:46.500Z,99739.94
2022-12-18T08:44:06.967Z,99740.81
2022-12-18T08:47:10.177Z,99742.63
2022-12-18T08:50:14.057Z,99740.41
2022-12-18T08:53:18.410Z,99751.66
2022-12-18T08:56:21.611Z,99756.38
2022-12-18T08:59:24.645Z,99738.22
2022-12-18T09:02:27.641Z,99739.06
2022-12-18T09:05:30.620Z,99741.19
2022-12-18T09:08:37.720Z,99738.22
2022-12-18T09:11:40.921Z,99740.91
2022-12-18T09:14:43.701Z,99743.41
2022-12-18T09:17:46.422Z,99760.28
2022-12-18T09:20:51.252Z,99747.59
2022-12-18T09:23:56.686Z,99748.59
2022-12-18T09:27:00.431Z,99756.78
2022-12-18T09:30:03.439Z,99762.13
2022-12-18T09:33:06.291Z,99756.94
2022-12-18T09:36:11.289Z,99755.09
2022-12-18T09:39:15.429Z,99748.59
2022-12-18T09:42:21.963Z,99763.97
2022-12-18T09:45:24.840Z,99763.97
2022-12-18T09:48:29.381Z,99767.47
2022-12-18T09:51:35.773Z,99770.00
2022-12-18T09:54:44.627Z,99767.03
2022-12-18T09:57:49.871Z,99772.38
2022-12-18T10:00:53.686Z,99777.03
2022-12-18T10:03:57.228Z,99777.56
2022-12-18T10:07:09.116Z,99774.75
2022-12-18T10:10:17.803Z,99784.75
2022-12-18T10:13:25.241Z,99779.25
2022-12-18T10:16:32.056Z,99782.63
2022-12-18T10:19:41.816Z,99781.78
2022-12-18T10:22:48.131Z,99789.97
2022-12-18T10:25:55.934Z,99792.31
2022-12-18T10:29:05.309Z,99793.16
2022-12-18T10:32:09.162Z,99798.81
2022-12-18T10:35:17.655Z,99801.50
2022-12-18T10:38:25.245Z,99802.34
2022-12-18T10:41:29.763Z,99806.53
2022-12-18T10:44:32.541Z,99806.53
2022-12-18T10:47:36.305Z,99804.44
2022-12-18T10:54:03.682Z,99799.66
2022-12-18T10:57:18.630Z,99810.09
2022-12-18T11:00:29.111Z,99811.03
2022-12-18T11:03:33.821Z,99820.22
2022-12-18T11:06:52.828Z,99817.13
2022-12-18T11:10:05.089Z,99818.97
2022-12-18T11:13:13.879Z,99814.72
2022-12-18T11:16:20.484Z,99821.50
2022-12-18T11:19:28.464Z,99818.97
2022-12-18T11:22:34.848Z,99822.16
2022-12-18T11:25:37.703Z,99822.31
2022-12-18T11:28:43.814Z,99811.31
2022-12-18T11:31:48.559Z,99813.53
2022-12-18T11:34:58.882Z,99818.66
2022-12-18T11:38:05.573Z,99814.97
2022-12-18T11:41:16.611Z,99824.84
2022-12-18T11:44:24.996Z,99829.75
2022-12-18T11:47:31.470Z,99832.72
2022-12-18T11:50:40.241Z,99828.50
2022-12-18T11:53:43.014Z,99839.75
2022-12-18T11:56:48.274Z,99843.28
2022-12-18T11:59:58.054Z,99853.00
2022-12-18T12:03:20.426Z,99854.69
2022-12-18T12:06:31.157Z,99853.13
2022-12-18T12:09:40.030Z,99863.97
2022-12-18T12:12:52.338Z,99864.69
2022-12-18T12:16:04.290Z,99878.06
2022-12-18T12:19:15.773Z,99887.63
2022-12-18T12:22:22.961Z,99882.53
2022-12-18T12:25:33.161Z,99890.38
2022-12-18T12:28:53.370Z,99896.03
2022-12-18T12:32:04.733Z,99891.66
2022-12-18T12:35:15.415Z,99907.88
2022-12-18T12:38:20.298Z,99914.63
2022-12-18T12:41:43.346Z,99924.47
2022-12-18T12:44:55.782Z,99933.19
2022-12-18T12:48:01.654Z,99930.66
2022-12-18T12:51:06.332Z,99930.66
2022-12-18T12:54:15.240Z,99927.84
2022-12-18T12:57:25.544Z,99931.19
2022-12-18T13:00:33.318Z,99934.28
2022-12-18T13:03:44.007Z,99939.22
2022-12-18T13:06:51.388Z,99954.59
2022-12-18T13:10:13.343Z,99942.44
2022-12-18T13:13:23.247Z,99948.66
2022-12-18T13:16:29.484Z,99952.44
2022-12-18T13:19:34.726Z,99960.44
2022-12-18T13:22:38.928Z,99961.88
2022-12-18T13:25:41.774Z,99957.50
2022-12-18T13:28:55.093Z,99963.72
2022-12-18T13:32:02.160Z,99969.69
2022-12-18T13:35:24.356Z,99973.75
2022-12-18T13:38:35.966Z,99975.03
2022-12-18T13:41:38.775Z,99986.28
2022-12-18T13:44:42.459Z,99991.09
2022-12-18T13:47:45.498Z,99992.34
2022-12-18T13:50:51.091Z,100003.72
2022-12-18T13:53:56.569Z,100006.28
2022-12-18T13:56:59.442Z,100006.84
2022-12-18T14:00:26.780Z,100017.25
2022-12-18T14:03:31.633Z,100015.00
2022-12-18T14:06:34.572Z,100019.38
2022-12-18T14:09:42.295Z,100026.13
2022-12-18T14:13:01.988Z,100033.00
2022-12-18T14:16:08.304Z,100031.31
2022-12-18T14:19:15.321Z,100035.25
2022-12-18T14:22:19.930Z,100032.69
2022-12-18T14:25:25.012Z,100039.16
2022-12-18T14:28:27.870Z,100049.97
2022-12-18T14:31:31.561Z,100057.28
2022-12-18T14:34:34.349Z,100065.56
2022-12-18T14:37:39.756Z,100066.84
2022-12-18T14:40:44.047Z,100065.41
2022-12-18T14:43:47.937Z,100074.81
2022-12-18T14:46:52.483Z,100074.81
2022-12-18T14:49:56.094Z,100090.00
2022-12-18T14:52:58.873Z,100086.78
2022-12-18T14:56:03.242Z,100095.03
2022-12-18T14:59:07.159Z,100095.56
2022-12-18T15:02:17.850Z,100099.97
2022-12-18T15:05:26.396Z,100091.91
2022-12-18T15:08:31.114Z,100109.34
2022-12-18T15:11:46.217Z,100113.97
2022-12-18T15:14:49.005Z,100116.78
2022-12-18T15:17:58.547Z,100119.44
2022-12-18T15:21:08.254Z,100123.22
2022-12-18T15:24:18.782Z,100133.19
2022-12-18T15:27:25.072Z,100129.81
2022-12-18T15:30:28.910Z,100125.59
2022-12-18T15:33:34.213Z,100132.63
2022-12-18T15:36:37.541Z,100138.94
2022-12-18T15:39:43.285Z,100137.50
2022-12-18T15:43:05.221Z,100142.13
2022-12-18T15:46:08.896Z,100149.16
2022-12-18T15:49:11.686Z,100150.38
2022-12-18T15:52:26.952Z,100150.81
2022-12-18T15:55:47.743Z,100161.63
2022-12-18T15:58:51.879Z,100165.13
2022-12-18T16:01:56.275Z,100165.38
2022-12-18T16:04:59.211Z,100172.06
2022-12-18T16:08:02.030Z,100187.03
2022-12-18T16:11:04.865Z,100184.41
2022-12-18T16:14:20.527Z,100190.78
2022-12-18T16:17:23.375Z,100192.50
2022-12-18T16:20:27.163Z,100182.53
2022-12-18T16:23:31.980Z,100194.22
2022-12-18T16:26:34.747Z,100197.09
2022-12-18T16:29:38.973Z,100206.84
2022-12-18T16:32:41.807Z,100215.81
2022-12-18T16:35:44.543Z,100219.25
2022-12-18T16:38:47.329Z,100213.91
2022-12-18T16:41:50.724Z,100226.41
2022-12-18T16:44:54.878Z,100234.28
2022-12-18T16:47:57.639Z,100231.50
2022-12-18T16:51:02.434Z,100234.59
2022-12-18T16:54:09.730Z,100249.66
2022-12-18T16:57:16.542Z,100246.03
2022-12-18T17:00:20.942Z,100246.84
2022-12-18T17:03:29.764Z,100256.81
2022-12-18T17:06:33.426Z,100257.09
2022-12-18T17:09:36.313Z,100250.63
2022-12-18T17:12:39.095Z,100261.59
2022-12-18T17:15:43.309Z,100268.63
2022-12-18T17:18:46.415Z,100266.53
2022-12-18T17:21:51.260Z,100272.00
2022-12-18T17:24:54.022Z,100275.53
2022-12-18T17:27:56.778Z,100287.81
2022-12-18T17:31:01.192Z,100284.84
2022-12-18T17:34:04.753Z,100277.53
2022-12-18T17:37:07.514Z,100284.31
2022-12-18T17:40:11.663Z,100285.16
2022-12-18T17:43:14.495Z,100286.97
2022-12-18T17:46:18.852Z,100289.50
2022-12-18T17:49:21.798Z,100300.34
2022-12-18T17:52:24.518Z,100297.38
2022-12-18T17:55:28.373Z,100302.63
2022-12-18T17:58:32.492Z,100306.97
2022-12-18T18:01:42.414Z,100306.38
2022-12-18T18:04:47.043Z,100315.00
2022-12-18T18:07:50.783Z,100318.66
2022-12-18T18:10:55.786Z,100318.66
2022-12-18T18:14:04.668Z,100325.56
2022-12-18T18:17:08.829Z,100319.38
2022-12-18T18:20:12.390Z,100330.91
2022-12-18T18:23:15.450Z,100337.94
2022-12-18T18:26:18.227Z,100347.09
2022-12-18T18:29:23.050Z,100346.25
2022-12-18T18:32:27.508Z,100354.28
2022-12-18T18:35:53.279Z,100349.63
2022-12-18T18:38:53.842Z,100351.31
2022-12-18T18:41:56.578Z,100354.69
2022-12-18T18:45:05.205Z,100346.53
2022-12-18T18:48:09.425Z,100356.78
2022-12-18T18:51:13.048Z,100366.06
2022-12-18T18:54:20.992Z,100374.34
2022-12-18T18:57:28.720Z,100375.88
2022-12-18T19:00:33.085Z,100375.28
2022-12-18T19:03:38.822Z,100393.56
2022-12-18T19:06:42.797Z,100400.84
2022-12-18T19:09:51.923Z,100396.03
2022-12-18T19:13:12.143Z,100402.03
2022-12-18T19:16:15.149Z,100397.81
2022-12-18T19:19:23.375Z,100405.38
2022-12-18T19:22:26.522Z,100404.16
2022-12-18T19:25:40.548Z,100403.44
2022-12-18T19:28:44.667Z,100412.97
2022-12-18T19:31:47.627Z,100421.25
2022-12-18T19:34:51.913Z,100423.19
2022-12-18T19:37:55.296Z,100422.72
2022-12-18T19:40:59.950Z,100419.59
2022-12-18T19:44:08.337Z,100420.97
2022-12-18T19:47:11.588Z,100431.03
2022-12-18T19:50:17.126Z,100427.78
2022-12-18T19:53:21.632Z,100442.63
2022-12-18T19:56:27.005Z,100446.41
2022-12-18T19:59:31.107Z,100437.66
2022-12-18T20:02:37.481Z,100443.97
2022-12-18T20:05:43.462Z,100456.59
2022-12-18T20:08:48.815Z,100463.91
2022-12-18T20:11:52.685Z,100474.56
2022-12-18T20:14:55.495Z,100472.13
2022-12-18T20:17:58.283Z,100476.00
2022-12-18T20:21:03.437Z,100471.91
2022-12-18T20:24:07.381Z,100487.94
2022-12-18T20:27:15.228Z,100482.31
2022-12-18T20:30:20.147Z,100490.13
2022-12-18T20:33:22.917Z,100499.22
2022-12-18T20:36:28.183Z,100496.91
2022-12-18T20:39:32.183Z,100505.91
2022-12-18T20:42:35.497Z,100511.94
2022-12-18T20:45:40.269Z,100518.41
2022-12-18T20:48:45.837Z,100519.47
2022-12-18T20:51:52.484Z,100524.69
2022-12-18T20:54:55.241Z,100532.78
2022-12-18T20:57:59.883Z,100519.91
2022-12-18T21:01:06.701Z,100525.09
2022-12-18T21:04:09.515Z,100524.69
2022-12-18T21:07:13.707Z,100522.34
2022-12-18T21:10:16.461Z,100517.34
2022-12-18T21:13:20.569Z,100526.34
2022-12-18T21:16:25.534Z,100528.25
2022-12-18T21:19:30.368Z,100526.63
2022-12-18T21:22:39.312Z,100534.91
2022-12-18T21:25:42.162Z,100545.41
2022-12-18T21:28:44.922Z,100543.75
2022-12-18T21:31:47.938Z,100547.75
2022-12-18T21:34:50.750Z,100548.97
2022-12-18T21:37:54.867Z,100554.66
2022-12-18T21:40:57.629Z,100559.16
2022-12-18T21:44:08.731Z,100568.16
2022-12-18T21:47:15.169Z,100564.75
2022-12-18T21:50:25.251Z,100562.53
2022-12-18T21:53:29.400Z,100569.84
2022-12-18T21:56:43.982Z,100575.34
2022-12-18T21:59:46.953Z,100574.59
2022-12-18T22:03:15.440Z,100568.16
2022-12-18T22:06:13.142Z,100568.03
2022-12-18T22:09:18.494Z,100574.06
2022-12-18T22:15:51.892Z,100576.38
2022-12-18T22:18:55.056Z,100580.88
2022-12-18T22:21:57.800Z,100591.72
2022-12-18T22:25:00.782Z,100591.31
2022-12-18T22:28:23.626Z,100594.09
2022-12-18T22:31:27.756Z,100597.97
2022-12-18T22:34:36.338Z,100601.47
2022-12-18T22:37:39.491Z,100612.19
2022-12-18T22:40:42.353Z,100611.59
2022-12-18T22:43:45.395Z,100616.81
2022-12-18T22:46:56.223Z,100615.25
2022-12-18T22:50:09.809Z,100613.53
2022-12-18T22:53:12.573Z,100615.50
2022-12-18T22:56:21.310Z,100619.72
2022-12-18T22:59:24.472Z,100622.31
2022-12-18T23:02:28.685Z,100621.44
2022-12-18T23:05:31.963Z,100635.41
2022-12-18T23:08:35.269Z,100635.53
2022-12-18T23:11:38.052Z,100638.69
2022-12-18T23:14:40.811Z,100640.50
2022-12-18T23:17:44.974Z,100645.84
2022-12-18T23:20:47.712Z,100642.19
2022-12-18T23:23:51.663Z,100645.72
2022-12-18T23:26:54.439Z,100649.38
2022-12-18T23:29:57.178Z,100652.91
2022-12-18T23:33:02.900Z,100662.75
2022-12-18T23:36:06.365Z,100666.84
2022-12-18T23:39:09.372Z,100675.56
2022-12-18T23:42:12.141Z,100679.50
2022-12-18T23:45:18.093Z,100679.75
2022-12-18T23:48:22.626Z,100681.69
2022-12-18T23:51:25.797Z,100694.59
2022-12-18T23:54:32.910Z,100686.13
2022-12-18T23:57:36.613Z,100690.00
